createdAt,value
2023-05-11T00:00:10.115Z,98461.88
2023-05-11T00:02:37.686Z,98455.94
2023-05-11T00:05:06.239Z,98454.31
2023-05-11T00:07:33.656Z,98458.84
2023-05-11T00:10:01.199Z,98444.47
2023-05-11T00:12:28.683Z,98452.50
2023-05-11T05:01:28.137Z,98407.34
2023-05-11T05:09:12.707Z,98415.78
2023-05-11T05:17:48.030Z,98426.41
2023-05-11T05:20:15.487Z,98422.16
2023-05-11T05:28:04.385Z,98422.47
2023-05-11T05:30:31.942Z,98422.38
2023-05-11T05:32:59.434Z,98426.06
2023-05-11T05:35:26.892Z,98424.47
2023-05-11T05:37:54.317Z,98422.09
2023-05-11T05:40:21.854Z,98425.81
2023-05-11T05:42:49.390Z,98410.84
2023-05-11T05:45:16.796Z,98417.84
2023-05-11T05:47:44.269Z,98421.03
2023-05-11T05:50:11.940Z,98417.78
2023-05-11T05:52:39.332Z,98416.34
2023-05-11T05:55:07.353Z,98419.94
2023-05-11T05:57:34.728Z,98427.19
2023-05-11T06:00:02.173Z,98421.31
2023-05-11T06:02:29.742Z,98414.47
2023-05-11T06:04:58.632Z,98420.56
2023-05-11T06:07:26.172Z,98422.75
2023-05-11T06:09:54.137Z,98420.69
2023-05-11T06:12:21.639Z,98427.44
2023-05-11T06:14:49.082Z,98420.31
2023-05-11T06:17:16.582Z,98426.47
2023-05-11T06:19:43.974Z,98428.16
2023-05-11T06:22:11.526Z,98426.78
2023-05-11T06:24:38.979Z,98419.88
2023-05-11T06:27:06.426Z,98418.81
2023-05-11T06:29:33.858Z,98415.94
2023-05-11T06:32:01.371Z,98414.25
2023-05-11T06:34:29.001Z,98414.69
2023-05-11T06:36:59.856Z,98402.03
2023-05-11T06:39:27.412Z,98412.72
2023-05-11T06:41:56.668Z,98409.81
2023-05-11T06:44:25.113Z,98416.56
2023-05-11T06:46:52.539Z,98409.00
2023-05-11T06:49:19.981Z,98413.09
2023-05-11T06:51:48.059Z,98410.34
2023-05-11T06:54:15.516Z,98406.81
2023-05-11T06:56:43.192Z,98412.00
2023-05-11T06:59:11.339Z,98410.59
2023-05-11T07:01:38.842Z,98404.19
2023-05-11T07:04:07.072Z,98403.13
2023-05-11T07:06:36.199Z,98406.28
2023-05-11T07:09:03.920Z,98410.31
2023-05-11T07:11:32.449Z,98397.22
2023-05-11T07:13:59.976Z,98416.22
2023-05-11T07:16:27.420Z,98408.81
2023-05-11T07:18:55.004Z,98401.97
2023-05-11T07:21:22.645Z,98406.78
2023-05-11T07:23:50.162Z,98409.81
2023-05-11T07:26:17.620Z,98409.47
2023-05-11T07:28:45.046Z,98402.56
2023-05-11T07:31:12.776Z,98411.59
2023-05-11T07:33:40.895Z,98403.75
2023-05-11T07:36:08.455Z,98414.72
2023-05-11T07:38:36.601Z,98413.03
2023-05-11T07:41:06.659Z,98399.94
2023-05-11T07:43:34.471Z,98412.13
2023-05-11T07:46:01.998Z,98401.63
2023-05-11T07:48:29.518Z,98404.03
2023-05-11T07:50:57.005Z,98403.75
2023-05-11T07:53:24.416Z,98398.50
2023-05-11T07:55:51.844Z,98395.53
2023-05-11T07:58:19.414Z,98403.97
2023-05-11T08:00:46.823Z,98406.47
2023-05-11T08:03:15.372Z,98395.88
2023-05-11T08:05:42.995Z,98406.56
2023-05-11T08:08:11.373Z,98401.66
2023-05-11T08:10:38.871Z,98402.56
2023-05-11T08:13:06.342Z,98402.91
2023-05-11T08:15:34.170Z,98393.56
2023-05-11T08:18:01.648Z,98398.06
2023-05-11T08:20:29.589Z,98389.94
2023-05-11T08:22:57.952Z,98387.97
2023-05-11T08:25:25.415Z,98387.41
2023-05-11T08:27:55.768Z,98384.00
2023-05-11T08:30:23.235Z,98388.34
2023-05-11T08:32:58.699Z,98385.63
2023-05-11T08:35:27.382Z,98387.63
2023-05-11T08:37:54.925Z,98389.38
2023-05-11T08:40:24.669Z,98380.03
2023-05-11T08:42:57.214Z,98380.25
2023-05-11T08:45:27.677Z,98382.84
2023-05-11T08:47:55.834Z,98385.31
2023-05-11T08:50:23.816Z,98381.84
2023-05-11T08:52:51.328Z,98352.25
2023-05-11T08:55:19.952Z,98369.31
2023-05-11T08:57:49.675Z,98383.47
2023-05-11T09:00:17.808Z,98362.59
2023-05-11T09:02:45.612Z,98377.09
2023-05-11T09:05:14.322Z,98381.09
2023-05-11T09:07:42.580Z,98379.06
2023-05-11T09:10:13.562Z,98377.88
2023-05-11T09:12:41.695Z,98380.47
2023-05-11T09:15:10.220Z,98380.13
2023-05-11T09:17:37.732Z,98377.75
2023-05-11T09:20:09.460Z,98374.53
2023-05-11T09:22:48.386Z,98369.03
2023-05-11T09:25:19.422Z,98372.63
2023-05-11T09:27:48.375Z,98368.63
2023-05-11T09:30:24.090Z,98373.78
2023-05-11T09:32:59.675Z,98377.75
2023-05-11T09:35:35.462Z,98373.38
2023-05-11T09:38:12.965Z,98377.31
2023-05-11T09:40:52.497Z,98370.94
2023-05-11T09:43:30.944Z,98375.31
2023-05-11T09:46:07.114Z,98375.22
2023-05-11T09:48:35.446Z,98389.38
2023-05-11T09:51:08.727Z,98376.19
2023-05-11T09:53:44.042Z,98377.91
2023-05-11T09:56:13.256Z,98378.16
2023-05-11T09:58:57.452Z,98379.53
2023-05-11T10:01:34.735Z,98385.53
2023-05-11T10:04:21.134Z,98376.22
2023-05-11T10:06:53.985Z,98373.16
2023-05-11T10:09:26.065Z,98362.28
2023-05-11T10:11:55.263Z,98361.94
2023-05-11T10:14:24.859Z,98367.06
2023-05-11T10:16:53.886Z,98363.63
2023-05-11T10:19:21.335Z,98359.31
2023-05-11T10:21:49.698Z,98367.38
2023-05-11T10:24:20.289Z,98356.66
2023-05-11T10:26:48.726Z,98370.78
2023-05-11T10:29:19.346Z,98359.81
2023-05-11T10:31:48.622Z,98355.50
2023-05-11T10:34:16.609Z,98346.81
2023-05-11T10:36:47.792Z,98351.19
2023-05-11T10:39:15.225Z,98352.78
2023-05-11T10:42:41.534Z,98344.84
2023-05-11T10:45:24.696Z,98345.66
2023-05-11T10:48:59.259Z,98337.31
2023-05-11T10:52:21.892Z,98331.38
2023-05-11T10:55:50.992Z,98329.38
2023-05-11T10:59:25.944Z,98326.59
2023-05-11T11:01:58.034Z,98321.81
2023-05-11T11:04:27.681Z,98323.03
2023-05-11T11:07:06.696Z,98314.31
2023-05-11T11:10:01.014Z,98316.31
2023-05-11T11:12:30.058Z,98319.06
2023-05-11T11:15:07.238Z,98315.09
2023-05-11T11:17:36.579Z,98317.03
2023-05-11T11:20:08.720Z,98309.50
2023-05-11T11:22:39.219Z,98324.63
2023-05-11T11:25:16.195Z,98309.94
2023-05-11T11:27:49.877Z,98316.69
2023-05-11T11:30:28.873Z,98306.63
2023-05-11T11:33:08.258Z,98301.97
2023-05-11T11:35:41.839Z,98306.75
2023-05-11T11:38:13.380Z,98301.63
2023-05-11T11:40:51.423Z,98301.22
2023-05-11T11:43:29.133Z,98305.97
2023-05-11T11:46:00.367Z,98294.03
2023-05-11T11:48:42.623Z,98305.56
2023-05-11T11:51:13.967Z,98299.19
2023-05-11T11:53:41.367Z,98301.22
2023-05-11T11:56:15.978Z,98298.00
2023-05-11T11:58:46.685Z,98294.28
2023-05-11T12:01:22.187Z,98290.81
2023-05-11T12:04:04.902Z,98288.53
2023-05-11T12:06:44.560Z,98294.38
2023-05-11T12:09:16.852Z,98287.13
2023-05-11T12:11:47.959Z,98291.56
2023-05-11T12:14:16.672Z,98282.16
2023-05-11T12:16:59.524Z,98289.28
2023-05-11T12:19:27.036Z,98289.19
2023-05-11T12:21:54.580Z,98284.56
2023-05-11T12:24:22.264Z,98282.19
2023-05-11T12:26:49.678Z,98297.25
2023-05-11T12:29:18.591Z,98290.13
2023-05-11T12:31:47.284Z,98290.91
2023-05-11T12:34:24.188Z,98281.78
2023-05-11T12:36:54.645Z,98275.00
2023-05-11T12:39:27.249Z,98273.84
2023-05-11T12:41:57.313Z,98285.22
2023-05-11T12:44:28.027Z,98285.31
2023-05-11T12:46:55.823Z,98274.09
2023-05-11T12:49:26.553Z,98277.13
2023-05-11T12:52:00.559Z,98276.41
2023-05-11T12:54:33.292Z,98270.75
2023-05-11T12:57:07.205Z,98266.34
2023-05-11T12:59:40.931Z,98259.94
2023-05-11T13:02:18.735Z,98264.13
2023-05-11T13:04:48.402Z,98264.88
2023-05-11T13:07:28.797Z,98258.63
2023-05-11T13:10:01.408Z,98257.91
2023-05-11T13:12:34.282Z,98249.38
2023-05-11T13:15:14.998Z,98258.00
2023-05-11T13:17:43.875Z,98261.38
2023-05-11T13:20:28.715Z,98256.63
2023-05-11T13:23:13.934Z,98261.81
2023-05-11T13:25:50.306Z,98260.84
2023-05-11T13:28:22.106Z,98252.34
2023-05-11T13:30:51.575Z,98262.03
2023-05-11T13:33:19.461Z,98256.72
2023-05-11T13:35:46.969Z,98254.00
2023-05-11T13:38:14.618Z,98258.72
2023-05-11T13:40:42.041Z,98246.81
2023-05-11T13:43:09.479Z,98249.59
2023-05-11T13:45:36.938Z,98248.47
2023-05-11T13:48:04.732Z,98252.06
2023-05-11T13:50:32.358Z,98251.25
2023-05-11T13:52:59.827Z,98249.25
2023-05-11T13:55:28.525Z,98252.84
2023-05-11T13:57:56.984Z,98251.97
2023-05-11T14:00:24.504Z,98242.91
2023-05-11T14:02:52.776Z,98238.97
2023-05-11T14:05:20.547Z,98231.84
2023-05-11T14:07:48.976Z,98238.59
2023-05-11T14:10:17.962Z,98233.38
2023-05-11T14:12:46.536Z,98226.69
2023-05-11T14:15:14.991Z,98232.22
2023-05-11T14:17:43.366Z,98236.59
2023-05-11T14:20:13.239Z,98238.59
2023-05-11T14:22:41.829Z,98225.91
2023-05-11T14:25:09.850Z,98222.66
2023-05-11T14:27:37.435Z,98223.06
2023-05-11T14:30:07.252Z,98223.88
2023-05-11T14:32:34.724Z,98225.88
2023-05-11T14:35:02.093Z,98223.53
2023-05-11T14:37:30.120Z,98221.13
2023-05-11T14:39:57.512Z,98212.44
2023-05-11T14:42:24.904Z,98211.56
2023-05-11T14:44:52.340Z,98206.06
2023-05-11T14:47:19.787Z,98217.13
2023-05-11T14:49:47.180Z,98213.94
2023-05-11T14:52:14.557Z,98212.38
2023-05-11T14:54:42.660Z,98213.59
2023-05-11T14:57:10.156Z,98210.66
2023-05-11T14:59:47.728Z,98202.66
2023-05-11T15:02:26.055Z,98207.53
2023-05-11T15:04:53.768Z,98204.41
2023-05-11T15:07:21.420Z,98202.38
2023-05-11T15:09:49.816Z,98198.03
2023-05-11T15:12:17.259Z,98188.44
2023-05-11T15:14:44.680Z,98185.31
2023-05-11T15:17:12.350Z,98192.38
2023-05-11T15:19:39.748Z,98195.41
2023-05-11T15:22:07.142Z,98198.06
2023-05-11T15:24:34.550Z,98189.97
2023-05-11T15:27:02.226Z,98194.47
2023-05-11T15:29:29.660Z,98186.03
2023-05-11T15:31:57.109Z,98194.72
2023-05-11T15:34:24.527Z,98192.25
2023-05-11T15:36:51.908Z,98188.66
2023-05-11T15:39:19.594Z,98196.72
2023-05-11T15:41:47.019Z,98195.34
2023-05-11T15:44:14.419Z,98203.75
2023-05-11T15:46:41.864Z,98198.97
2023-05-11T15:49:09.387Z,98198.19
2023-05-11T15:51:37.155Z,98205.41
2023-05-11T15:54:04.671Z,98198.34
2023-05-11T15:56:32.291Z,98209.22
2023-05-11T15:58:59.741Z,98202.97
2023-05-11T16:01:27.160Z,98209.16
2023-05-11T16:03:54.693Z,98205.63
2023-05-11T16:06:22.116Z,98202.91
2023-05-11T16:08:49.527Z,98210.25
2023-05-11T16:11:18.907Z,98202.38
2023-05-11T16:13:46.717Z,98219.50
2023-05-11T16:16:14.585Z,98209.94
2023-05-11T16:18:42.152Z,98198.91
2023-05-11T16:21:09.643Z,98206.09
2023-05-11T16:23:37.017Z,98204.59
2023-05-11T16:26:04.520Z,98203.47
2023-05-11T16:28:33.308Z,98200.28
2023-05-11T16:31:01.085Z,98205.34
2023-05-11T16:33:28.493Z,98204.00
2023-05-11T16:35:55.983Z,98212.75
2023-05-11T16:38:23.856Z,98202.09
2023-05-11T16:40:51.285Z,98202.81
2023-05-11T16:43:18.687Z,98194.91
2023-05-11T16:45:46.122Z,98199.59
2023-05-11T16:48:13.511Z,98197.69
2023-05-11T16:50:41.225Z,98196.31
2023-05-11T16:53:09.230Z,98197.56
2023-05-11T16:55:36.686Z,98191.34
2023-05-11T16:58:04.103Z,98198.63
2023-05-11T17:00:34.034Z,98198.56
2023-05-11T17:03:01.944Z,98178.22
2023-05-11T17:05:29.422Z,98183.47
2023-05-11T17:07:56.827Z,98185.63
2023-05-11T17:10:24.592Z,98194.72
2023-05-11T17:12:52.141Z,98190.84
2023-05-11T17:15:19.583Z,98185.63
2023-05-11T17:17:47.018Z,98195.88
2023-05-11T17:20:14.693Z,98194.47
2023-05-11T17:22:42.137Z,98198.81
2023-05-11T17:25:10.137Z,98203.19
2023-05-11T17:27:37.669Z,98191.56
2023-05-11T17:30:07.028Z,98201.84
2023-05-11T17:32:34.722Z,98207.34
2023-05-11T17:35:02.522Z,98208.59
2023-05-11T17:37:32.254Z,98209.00
2023-05-11T17:40:01.758Z,98209.03
2023-05-11T17:42:30.707Z,98212.75
2023-05-11T17:44:58.227Z,98209.16
2023-05-11T17:47:26.286Z,98214.75
2023-05-11T17:49:54.769Z,98218.31
2023-05-11T17:52:24.770Z,98218.75
2023-05-11T17:54:52.476Z,98212.78
2023-05-11T17:57:19.888Z,98212.03
2023-05-11T17:59:47.883Z,98219.53
2023-05-11T18:02:15.967Z,98214.81
2023-05-11T18:04:43.521Z,98222.31
2023-05-11T18:07:10.952Z,98224.28
2023-05-11T18:09:38.342Z,98234.19
2023-05-11T18:12:07.979Z,98232.22
2023-05-11T18:14:36.279Z,98230.59
2023-05-11T18:17:04.533Z,98231.41
2023-05-11T18:19:32.013Z,98236.19
2023-05-11T18:22:00.752Z,98235.81
2023-05-11T18:24:28.171Z,98240.16
2023-05-11T18:26:56.034Z,98233.03
2023-05-11T18:29:23.421Z,98230.59
2023-05-11T18:31:51.088Z,98240.19
2023-05-11T18:34:18.576Z,98244.53
2023-05-11T18:36:45.949Z,98240.16
2023-05-11T18:39:14.323Z,98240.97
2023-05-11T18:41:41.804Z,98242.19
2023-05-11T18:44:09.458Z,98251.28
2023-05-11T18:46:37.207Z,98243.75
2023-05-11T18:49:04.668Z,98246.91
2023-05-11T18:51:32.090Z,98251.28
2023-05-11T18:53:59.475Z,98246.13
2023-05-11T18:56:26.882Z,98252.84
2023-05-11T18:58:55.299Z,98250.88
2023-05-11T19:01:27.909Z,98256.44
2023-05-11T19:04:00.791Z,98260.41
2023-05-11T19:06:28.785Z,98266.34
2023-05-11T19:08:56.175Z,98265.16
2023-05-11T19:11:26.176Z,98268.72
2023-05-11T19:13:53.642Z,98267.94
2023-05-11T19:16:21.090Z,98271.09
2023-05-11T19:18:49.679Z,98269.91
2023-05-11T19:21:17.154Z,98265.94
2023-05-11T19:23:44.838Z,98274.28
2023-05-11T19:26:12.258Z,98265.94
2023-05-11T19:28:39.648Z,98268.34
2023-05-11T19:31:07.209Z,98269.53
2023-05-11T19:33:34.625Z,98274.66
2023-05-11T19:36:02.175Z,98264.75
2023-05-11T19:38:29.622Z,98277.81
2023-05-11T19:40:57.107Z,98283.00
2023-05-11T19:43:24.507Z,98277.84
2023-05-11T19:45:52.168Z,98286.97
2023-05-11T19:48:19.772Z,98282.59
2023-05-11T19:50:47.289Z,98279.44
2023-05-11T19:53:15.098Z,98282.97
2023-05-11T19:55:42.508Z,98292.91
2023-05-11T19:58:10.142Z,98299.59
2023-05-11T20:00:41.015Z,98298.38
2023-05-11T20:03:08.780Z,98296.81
2023-05-11T20:05:36.803Z,98298.41
2023-05-11T20:08:06.218Z,98304.38
2023-05-11T20:10:33.938Z,98306.34
2023-05-11T20:13:04.029Z,98308.28
2023-05-11T20:15:34.047Z,98313.81
2023-05-11T20:18:05.255Z,98310.31
2023-05-11T20:20:33.315Z,98304.66
2023-05-11T20:23:02.443Z,98309.88
2023-05-11T20:25:30.170Z,98311.44
2023-05-11T20:27:57.578Z,98302.69
2023-05-11T20:30:24.940Z,98307.84
2023-05-11T20:35:23.157Z,98309.38
2023-05-11T20:37:50.595Z,98318.47
2023-05-11T20:40:18.664Z,98311.78
2023-05-11T20:42:46.401Z,98318.94
2023-05-11T20:45:13.936Z,98319.34
2023-05-11T20:47:41.385Z,98309.78
2023-05-11T20:50:10.256Z,98311.25
2023-05-11T20:52:38.123Z,98303.38
2023-05-11T20:55:07.391Z,98306.13
2023-05-11T20:57:34.888Z,98299.84
2023-05-11T21:00:04.155Z,98296.69
2023-05-11T21:02:32.339Z,98306.63
2023-05-11T21:05:02.351Z,98303.47
2023-05-11T21:07:31.039Z,98297.81
2023-05-11T21:09:58.471Z,98312.88
2023-05-11T21:12:25.883Z,98306.19
2023-05-11T21:14:54.946Z,98300.09
2023-05-11T21:17:24.305Z,98312.69
2023-05-11T21:19:51.875Z,98307.13
2023-05-11T21:22:20.302Z,98319.72
2023-05-11T21:24:47.849Z,98320.13
2023-05-11T21:27:15.427Z,98304.72
2023-05-11T21:29:42.893Z,98305.94
2023-05-11T21:32:10.638Z,98303.94
2023-05-11T21:34:38.503Z,98308.28
2023-05-11T21:37:05.969Z,98307.94
2023-05-11T21:39:33.537Z,98308.84
2023-05-11T21:42:02.007Z,98305.53
2023-05-11T21:44:29.578Z,98301.56
2023-05-11T21:46:57.110Z,98286.50
2023-05-11T21:49:24.504Z,98302.13
2023-05-11T21:51:52.386Z,98309.59
2023-05-11T21:54:22.889Z,98311.16
2023-05-11T21:56:52.289Z,98305.22
